createdAt,value
2023-03-29T00:00:14.163Z,4.53
2023-03-29T00:02:48.611Z,3.17
2023-03-29T00:05:18.552Z,3.92
2023-03-29T00:07:46.966Z,5.40
2023-03-29T00:10:15.806Z,2.97
2023-03-29T00:12:43.959Z,4.50
2023-03-29T00:15:12.785Z,7.32
2023-03-29T00:17:41.052Z,6.45
2023-03-29T00:20:12.329Z,6.15
2023-03-29T00:22:42.071Z,6.10
2023-03-29T00:25:11.128Z,5.60
2023-03-29T00:27:41.895Z,4.32
2023-03-29T00:30:11.106Z,5.13
2023-03-29T00:32:41.725Z,4.90
2023-03-29T00:35:11.498Z,4.82
2023-03-29T00:37:39.709Z,3.45
2023-03-29T00:40:11.059Z,3.42
2023-03-29T00:42:39.416Z,3.30
2023-03-29T00:45:17.484Z,3.42
2023-03-29T00:47:48.806Z,3.13
2023-03-29T00:50:25.900Z,3.40
2023-03-29T00:53:00.879Z,3.97
2023-03-29T00:55:32.972Z,2.80
2023-03-29T00:58:04.437Z,2.38
2023-03-29T01:00:36.569Z,4.20
2023-03-29T01:03:13.884Z,5.65
2023-03-29T01:05:46.785Z,5.07
2023-03-29T01:08:20.038Z,5.30
2023-03-29T01:10:52.456Z,3.53
2023-03-29T01:13:28.682Z,4.40
2023-03-29T01:15:59.220Z,8.15
2023-03-29T01:18:27.484Z,9.15
2023-03-29T01:21:16.854Z,7.25
2023-03-29T01:24:07.653Z,4.35
2023-03-29T01:26:48.537Z,3.80
2023-03-29T01:29:25.602Z,4.05
2023-03-29T01:31:59.235Z,3.35
2023-03-29T01:34:35.378Z,2.92
2023-03-29T01:37:08.592Z,4.78
2023-03-29T01:39:36.960Z,6.82
2023-03-29T01:42:16.167Z,5.55
2023-03-29T01:44:53.813Z,4.93
2023-03-29T01:47:28.616Z,5.85
2023-03-29T01:50:06.448Z,5.75
2023-03-29T01:52:39.579Z,4.53
2023-03-29T01:55:14.381Z,5.47
2023-03-29T01:57:45.626Z,6.38
2023-03-29T02:00:19.063Z,6.07
2023-03-29T02:02:48.649Z,5.35
2023-03-29T02:05:19.673Z,4.10
2023-03-29T02:07:50.455Z,3.65
2023-03-29T02:10:19.972Z,3.90
2023-03-29T02:12:48.317Z,3.63
2023-03-29T02:15:20.792Z,4.15
2023-03-29T02:17:50.854Z,3.90
2023-03-29T02:20:22.590Z,3.72
2023-03-29T02:22:59.615Z,4.57
2023-03-29T02:25:27.996Z,5.65
2023-03-29T02:27:57.240Z,6.95
2023-03-29T02:30:31.307Z,3.88
2023-03-29T02:33:06.772Z,4.28
2023-03-29T02:35:42.252Z,3.25
2023-03-29T02:38:11.782Z,3.53
2023-03-29T02:40:43.185Z,3.90
2023-03-29T02:43:14.189Z,4.53
2023-03-29T02:45:45.344Z,3.83
2023-03-29T02:48:19.139Z,4.25
2023-03-29T02:50:50.339Z,3.47
2023-03-29T02:53:22.729Z,3.42
2023-03-29T02:55:52.865Z,4.40
2023-03-29T02:58:28.768Z,4.20
2023-03-29T03:01:01.291Z,5.53
2023-03-29T03:03:30.174Z,5.60
2023-03-29T03:06:02.032Z,5.97
2023-03-29T03:08:32.166Z,6.07
2023-03-29T03:11:02.351Z,5.68
2023-03-29T03:13:30.803Z,6.22
2023-03-29T03:16:01.188Z,7.10
2023-03-29T03:18:29.462Z,6.47
2023-03-29T03:20:59.165Z,8.88
2023-03-29T03:23:27.564Z,24.80
2023-03-29T03:25:56.386Z,47.63
2023-03-29T03:28:27.242Z,24.25
2023-03-29T03:30:56.104Z,23.10
2023-03-29T03:33:26.953Z,9.60
2023-03-29T03:36:15.656Z,8.00
2023-03-29T03:38:47.684Z,6.22
2023-03-29T03:41:19.788Z,7.72
2023-03-29T03:43:49.458Z,10.30
2023-03-29T03:46:19.140Z,5.43
2023-03-29T03:48:49.362Z,4.82
2023-03-29T03:51:22.918Z,4.72
2023-03-29T03:53:52.309Z,5.85
2023-03-29T03:56:35.346Z,6.07
2023-03-29T03:59:15.553Z,8.85
2023-03-29T04:02:16.572Z,9.70
2023-03-29T04:04:47.677Z,9.55
2023-03-29T04:07:19.650Z,8.07
2023-03-29T04:10:08.953Z,7.30
2023-03-29T04:12:49.303Z,7.03
2023-03-29T04:15:20.210Z,15.73
2023-03-29T04:17:57.462Z,18.35
2023-03-29T04:20:31.784Z,15.13
2023-03-29T04:23:01.589Z,10.13
2023-03-29T04:25:30.773Z,7.53
2023-03-29T04:28:36.215Z,6.80
2023-03-29T04:31:12.147Z,7.15
2023-03-29T04:33:51.558Z,7.38
2023-03-29T04:36:21.393Z,8.07
2023-03-29T04:38:52.227Z,11.60
2023-03-29T04:41:21.300Z,7.67
2023-03-29T04:44:00.504Z,6.18
2023-03-29T04:46:33.297Z,7.40
2023-03-29T04:49:11.356Z,9.68
2023-03-29T04:51:43.968Z,9.25
2023-03-29T04:54:15.676Z,18.85
2023-03-29T04:57:07.047Z,11.55
2023-03-29T04:59:41.595Z,11.73
2023-03-29T05:02:33.125Z,19.45
2023-03-29T05:05:01.443Z,19.27
2023-03-29T05:07:31.580Z,19.88
2023-03-29T05:09:59.833Z,15.73
2023-03-29T05:12:28.509Z,14.10
2023-03-29T05:14:58.835Z,14.15
2023-03-29T05:17:28.593Z,8.20
2023-03-29T05:20:09.128Z,6.03
2023-03-29T05:22:40.192Z,5.70
2023-03-29T05:25:13.291Z,5.68
2023-03-29T05:27:45.876Z,6.45
2023-03-29T05:30:15.766Z,4.57
2023-03-29T05:33:13.089Z,6.07
2023-03-29T05:35:41.397Z,3.80
2023-03-29T05:38:11.622Z,2.88
2023-03-29T05:40:41.437Z,6.32
2023-03-29T05:43:28.534Z,6.30
2023-03-29T05:45:57.630Z,6.82
2023-03-29T05:48:27.414Z,7.15
2023-03-29T05:50:57.830Z,10.05
2023-03-29T05:53:28.436Z,3.72
2023-03-29T05:55:57.282Z,7.50
2023-03-29T05:58:28.469Z,7.05
2023-03-29T06:00:57.335Z,8.45
2023-03-29T06:03:48.130Z,7.28
2023-03-29T06:06:18.711Z,5.57
2023-03-29T06:08:48.968Z,5.20
2023-03-29T06:11:24.315Z,4.78
2023-03-29T06:14:04.561Z,7.53
2023-03-29T06:16:33.658Z,10.63
2023-03-29T06:19:02.746Z,5.65
2023-03-29T06:21:32.932Z,6.90
2023-03-29T06:24:04.099Z,3.88
2023-03-29T06:26:38.566Z,5.10
2023-03-29T06:29:06.771Z,2.30
2023-03-29T06:31:36.113Z,3.15
2023-03-29T06:34:05.934Z,5.05
2023-03-29T06:36:54.846Z,5.93
2023-03-29T06:39:26.400Z,4.00
2023-03-29T06:42:20.643Z,5.93
2023-03-29T06:45:24.033Z,4.32
2023-03-29T06:47:54.780Z,2.80
2023-03-29T06:50:24.250Z,5.82
2023-03-29T06:53:04.190Z,4.53
2023-03-29T06:55:34.411Z,4.78
2023-03-29T06:58:16.382Z,5.75
2023-03-29T07:00:45.917Z,3.42
2023-03-29T07:03:24.592Z,3.88
2023-03-29T07:06:02.906Z,5.57
2023-03-29T07:08:32.330Z,2.80
2023-03-29T07:11:05.756Z,2.55
2023-03-29T07:13:55.438Z,4.53
2023-03-29T07:16:24.199Z,3.55
2023-03-29T07:19:01.382Z,6.45
2023-03-29T07:21:53.279Z,4.18
2023-03-29T07:24:24.544Z,6.50
2023-03-29T07:27:03.439Z,5.97
2023-03-29T07:29:33.333Z,3.10
2023-03-29T07:32:01.552Z,3.38
2023-03-29T07:34:44.543Z,6.57
2023-03-29T07:37:25.707Z,4.95
2023-03-29T07:39:54.931Z,5.43
2023-03-29T07:42:47.749Z,2.00
2023-03-29T07:45:26.637Z,2.05
2023-03-29T07:48:10.662Z,3.10
2023-03-29T07:51:09.050Z,2.85
2023-03-29T07:53:45.265Z,3.03
2023-03-29T07:56:31.810Z,2.67
2023-03-29T07:59:21.758Z,4.43
2023-03-29T08:01:59.294Z,1.83
2023-03-29T08:04:32.847Z,1.85
2023-03-29T08:07:24.835Z,3.30
2023-03-29T08:10:13.562Z,4.68
2023-03-29T08:13:09.099Z,3.20
2023-03-29T08:15:51.974Z,2.15
2023-03-29T08:18:37.364Z,3.22
2023-03-29T08:21:07.253Z,1.25
2023-03-29T08:23:36.076Z,1.77
2023-03-29T08:26:15.927Z,2.10
2023-03-29T08:28:44.885Z,1.40
2023-03-29T08:31:15.024Z,2.25
2023-03-29T08:33:46.371Z,2.03
2023-03-29T08:36:34.854Z,1.92
2023-03-29T08:39:11.417Z,1.60
2023-03-29T08:41:53.721Z,4.25
2023-03-29T08:44:37.921Z,1.48
2023-03-29T08:47:21.955Z,2.25
2023-03-29T08:49:56.748Z,2.05
2023-03-29T08:52:37.176Z,1.02
2023-03-29T08:55:25.827Z,4.07
2023-03-29T08:58:25.462Z,3.03
2023-03-29T09:00:56.831Z,1.70
2023-03-29T09:03:31.104Z,2.53
2023-03-29T09:06:07.612Z,2.85
2023-03-29T09:08:46.201Z,2.17
2023-03-29T09:11:31.303Z,2.92
2023-03-29T09:14:15.671Z,2.42
2023-03-29T09:16:51.156Z,2.53
2023-03-29T09:19:32.891Z,2.35
2023-03-29T09:22:14.004Z,3.70
2023-03-29T09:24:54.633Z,4.20
2023-03-29T09:27:28.180Z,3.22
2023-03-29T09:30:17.175Z,3.60
2023-03-29T09:33:01.894Z,3.05
2023-03-29T09:35:48.327Z,3.03
2023-03-29T09:38:19.488Z,2.20
2023-03-29T09:40:51.301Z,2.88
2023-03-29T09:43:30.523Z,3.00
2023-03-29T09:46:04.141Z,2.78
2023-03-29T09:48:37.764Z,2.97
2023-03-29T09:51:09.830Z,1.70
2023-03-29T09:53:40.436Z,1.65
2023-03-29T09:56:19.036Z,2.55
2023-03-29T09:58:53.017Z,2.42
2023-03-29T10:01:21.414Z,2.25
2023-03-29T10:03:53.431Z,1.33
2023-03-29T10:06:26.848Z,1.17
2023-03-29T10:09:01.022Z,4.55
2023-03-29T10:11:38.314Z,2.60
2023-03-29T10:14:13.286Z,3.65
2023-03-29T10:16:45.982Z,2.03
2023-03-29T10:19:27.501Z,0.98
2023-03-29T10:22:00.127Z,2.88
2023-03-29T10:24:29.138Z,2.40
2023-03-29T10:27:01.182Z,1.92
2023-03-29T10:29:37.395Z,2.33
2023-03-29T10:32:16.237Z,1.42
2023-03-29T10:34:46.802Z,1.20
2023-03-29T10:37:19.298Z,2.05
2023-03-29T10:39:48.839Z,1.40
2023-03-29T10:42:20.272Z,1.98
2023-03-29T10:44:54.559Z,1.70
2023-03-29T10:47:23.458Z,1.10
2023-03-29T10:49:56.366Z,1.58
2023-03-29T10:52:27.201Z,2.25
2023-03-29T10:54:59.181Z,2.35
2023-03-29T10:57:37.188Z,2.45
2023-03-29T11:00:11.089Z,1.60
2023-03-29T11:03:14.261Z,1.85
2023-03-29T11:05:48.742Z,1.08
2023-03-29T11:08:36.033Z,1.17
2023-03-29T11:11:16.126Z,1.13
2023-03-29T11:13:51.389Z,1.55
2023-03-29T11:16:28.146Z,1.65
2023-03-29T11:19:13.525Z,1.17
2023-03-29T11:21:49.915Z,1.08
2023-03-29T11:24:47.624Z,0.98
2023-03-29T11:27:27.364Z,1.95
2023-03-29T11:30:08.657Z,2.33
2023-03-29T11:32:47.041Z,2.45
2023-03-29T11:35:38.964Z,1.40
2023-03-29T11:38:13.733Z,1.13
2023-03-29T11:40:54.667Z,1.13
2023-03-29T11:43:28.881Z,1.50
2023-03-29T11:46:00.880Z,1.30
2023-03-29T11:48:36.922Z,1.20
2023-03-29T11:51:13.121Z,1.10
2023-03-29T11:53:51.684Z,1.10
2023-03-29T11:56:29.285Z,1.35
2023-03-29T11:59:04.675Z,1.20
2023-03-29T12:01:36.593Z,1.40
2023-03-29T12:04:08.873Z,1.05
2023-03-29T12:06:43.130Z,1.20
2023-03-29T12:09:23.320Z,1.00
2023-03-29T12:11:58.765Z,1.20
2023-03-29T12:14:31.386Z,1.02
2023-03-29T12:17:03.248Z,0.68
2023-03-29T12:19:33.126Z,0.80
2023-03-29T12:22:02.185Z,1.20
2023-03-29T12:24:34.408Z,1.27
2023-03-29T12:27:20.230Z,1.13
2023-03-29T12:30:05.600Z,0.88
2023-03-29T12:32:45.927Z,0.70
2023-03-29T12:35:42.139Z,0.57
2023-03-29T12:38:31.218Z,1.00
2023-03-29T12:41:20.432Z,1.20
2023-03-29T12:44:16.114Z,1.02
2023-03-29T12:46:58.136Z,1.20
2023-03-29T12:49:31.378Z,0.80
2023-03-29T12:52:01.693Z,0.95
2023-03-29T12:54:33.025Z,1.25
2023-03-29T12:57:03.404Z,0.90
2023-03-29T12:59:41.227Z,1.50
2023-03-29T13:02:36.994Z,1.15
2023-03-29T13:05:26.454Z,1.02
2023-03-29T13:07:55.948Z,0.95
2023-03-29T13:10:42.243Z,1.10
2023-03-29T13:13:16.111Z,1.67
2023-03-29T13:15:46.796Z,1.10
2023-03-29T13:18:33.969Z,1.27
2023-03-29T13:21:10.711Z,1.00
2023-03-29T13:23:48.515Z,1.20
2023-03-29T13:26:39.790Z,0.90
2023-03-29T13:29:30.751Z,1.30
2023-03-29T13:32:07.192Z,0.88
2023-03-29T13:34:42.108Z,0.85
2023-03-29T13:37:23.917Z,1.10
2023-03-29T13:39:53.935Z,1.55
2023-03-29T13:42:25.946Z,1.02
2023-03-29T13:44:54.241Z,1.23
2023-03-29T13:47:48.906Z,1.30
2023-03-29T13:50:36.380Z,1.42
2023-03-29T13:53:11.703Z,1.48
2023-03-29T13:55:48.835Z,1.38
2023-03-29T13:58:28.379Z,2.05
2023-03-29T14:01:02.346Z,1.55
2023-03-29T14:03:44.714Z,1.20
2023-03-29T14:06:16.165Z,1.85
2023-03-29T14:08:45.724Z,1.33
2023-03-29T14:11:23.007Z,2.10
2023-03-29T14:13:54.474Z,2.15
2023-03-29T14:16:24.306Z,1.60
2023-03-29T14:18:54.269Z,1.70
2023-03-29T14:21:25.428Z,1.02
2023-03-29T14:23:58.468Z,2.83
2023-03-29T14:26:31.909Z,1.80
2023-03-29T14:29:01.713Z,2.72
2023-03-29T14:31:33.377Z,2.47
2023-03-29T14:34:05.062Z,1.40
2023-03-29T14:36:34.384Z,1.60
2023-03-29T14:39:05.845Z,1.55
2023-03-29T14:41:37.193Z,1.98
2023-03-29T14:44:07.646Z,0.98
2023-03-29T14:46:37.212Z,1.83
2023-03-29T14:49:07.350Z,1.40
2023-03-29T14:51:36.949Z,1.40
2023-03-29T14:54:06.505Z,2.38
2023-03-29T14:56:35.026Z,1.90
2023-03-29T14:59:05.343Z,1.52
2023-03-29T15:01:33.709Z,1.73
2023-03-29T15:04:06.140Z,1.50
2023-03-29T15:06:39.900Z,1.67
2023-03-29T15:09:14.022Z,1.90
2023-03-29T15:11:42.400Z,1.90
2023-03-29T15:14:17.288Z,1.90
2023-03-29T15:16:48.232Z,1.70
2023-03-29T15:19:19.365Z,1.17
2023-03-29T15:21:50.536Z,1.50
2023-03-29T15:24:24.413Z,1.73
2023-03-29T15:27:04.214Z,2.08
2023-03-29T15:29:38.566Z,2.15
2023-03-29T15:32:07.229Z,2.08
2023-03-29T15:34:35.541Z,1.95
2023-03-29T15:37:05.761Z,1.67
2023-03-29T15:39:34.903Z,2.25
2023-03-29T15:42:03.144Z,1.90
2023-03-29T15:44:36.242Z,1.98
2023-03-29T15:47:04.949Z,1.63
2023-03-29T15:49:33.397Z,2.33
2023-03-29T15:52:01.578Z,1.67
2023-03-29T15:54:33.288Z,2.00
2023-03-29T15:57:05.315Z,2.30
2023-03-29T15:59:33.997Z,1.88
2023-03-29T16:02:02.494Z,2.08
2023-03-29T16:04:30.815Z,1.90
2023-03-29T16:06:59.050Z,2.30
2023-03-29T16:09:27.370Z,2.47
2023-03-29T16:11:57.005Z,2.03
2023-03-29T16:14:27.659Z,1.77
2023-03-29T16:16:58.829Z,2.22
2023-03-29T16:19:28.164Z,1.80
2023-03-29T16:21:56.958Z,1.77
2023-03-29T16:24:27.437Z,1.70
2023-03-29T16:26:58.450Z,2.35
2023-03-29T16:29:27.020Z,1.95
2023-03-29T16:31:55.773Z,1.85
2023-03-29T16:34:24.844Z,2.00
2023-03-29T16:36:53.924Z,1.88
2023-03-29T16:39:22.146Z,2.05
2023-03-29T16:41:50.826Z,1.83
2023-03-29T16:44:27.538Z,2.15
2023-03-29T16:46:57.790Z,2.55
2023-03-29T16:49:26.048Z,2.17
2023-03-29T16:51:54.263Z,2.08
2023-03-29T16:54:25.568Z,2.45
2023-03-29T16:56:53.879Z,2.67
2023-03-29T16:59:23.489Z,2.25
2023-03-29T17:01:51.731Z,2.55
2023-03-29T17:04:22.555Z,2.75
2023-03-29T17:06:51.592Z,3.20
2023-03-29T17:09:20.061Z,3.45
2023-03-29T17:11:48.283Z,6.22
2023-03-29T17:14:17.013Z,5.93
2023-03-29T17:16:46.600Z,8.07
2023-03-29T17:19:14.823Z,3.80
2023-03-29T17:21:43.213Z,3.03
2023-03-29T17:24:11.391Z,4.07
2023-03-29T17:26:39.967Z,4.20
2023-03-29T17:29:08.205Z,15.98
2023-03-29T17:31:37.354Z,9.57
2023-03-29T17:34:07.741Z,8.95
2023-03-29T17:36:37.428Z,12.55
2023-03-29T17:39:06.194Z,23.02
2023-03-29T17:41:34.370Z,8.82
2023-03-29T17:44:04.469Z,10.77
2023-03-29T17:46:32.761Z,11.05
2023-03-29T17:49:03.955Z,12.73
2023-03-29T17:51:33.632Z,10.25
2023-03-29T17:54:01.820Z,9.45
2023-03-29T17:56:30.035Z,9.93
2023-03-29T17:58:58.713Z,12.85
2023-03-29T18:01:27.271Z,7.97
2023-03-29T18:03:55.604Z,10.45
2023-03-29T18:06:24.459Z,10.90
2023-03-29T18:08:55.097Z,6.75
2023-03-29T18:11:24.680Z,6.18
2023-03-29T18:13:53.912Z,7.53
2023-03-29T18:16:23.368Z,17.15
2023-03-29T18:18:51.958Z,15.35
2023-03-29T18:21:20.804Z,14.43
2023-03-29T18:23:52.860Z,9.80
2023-03-29T18:26:24.127Z,7.53
2023-03-29T18:28:52.409Z,7.43
2023-03-29T18:31:20.829Z,6.68
2023-03-29T18:33:49.025Z,6.65
2023-03-29T18:36:18.602Z,6.82
2023-03-29T18:38:46.930Z,5.70
2023-03-29T18:41:15.849Z,5.10
2023-03-29T18:43:46.764Z,6.78
2023-03-29T18:46:15.047Z,6.32
2023-03-29T18:48:43.264Z,7.15
2023-03-29T18:51:13.329Z,7.70
2023-03-29T18:53:43.599Z,6.65
2023-03-29T18:56:11.914Z,6.93
2023-03-29T18:58:40.066Z,5.43
2023-03-29T19:01:10.802Z,4.93
2023-03-29T19:03:39.201Z,9.48
2023-03-29T19:06:08.337Z,8.23
2023-03-29T19:08:39.613Z,6.65
2023-03-29T19:11:09.444Z,6.05
2023-03-29T19:13:37.716Z,5.85
2023-03-29T19:16:06.580Z,6.40
2023-03-29T19:18:36.615Z,5.82
2023-03-29T19:21:04.901Z,5.10
2023-03-29T19:23:33.075Z,5.15
2023-03-29T19:26:03.454Z,6.18
2023-03-29T19:28:32.137Z,8.68
2023-03-29T19:31:01.890Z,5.38
2023-03-29T19:33:30.422Z,9.05
2023-03-29T19:36:00.078Z,4.75
2023-03-29T19:38:28.305Z,4.55
2023-03-29T19:40:57.314Z,5.38
2023-03-29T19:43:25.519Z,4.30
2023-03-29T19:45:53.679Z,5.13
2023-03-29T19:48:23.829Z,3.47
2023-03-29T19:50:52.951Z,4.35
2023-03-29T19:53:23.161Z,5.18
2023-03-29T19:55:52.367Z,5.25
2023-03-29T19:58:20.664Z,21.27
2023-03-29T20:00:50.655Z,10.57
2023-03-29T20:03:18.899Z,7.10
2023-03-29T20:05:47.809Z,4.57
2023-03-29T20:08:16.119Z,4.47
2023-03-29T20:10:45.721Z,4.85
2023-03-29T20:13:15.780Z,5.07
2023-03-29T20:15:50.138Z,4.93
2023-03-29T20:18:21.653Z,4.30
2023-03-29T20:20:50.488Z,3.92
2023-03-29T20:23:18.909Z,4.68
2023-03-29T20:25:48.418Z,4.30
2023-03-29T20:28:17.253Z,4.85
2023-03-29T20:30:45.638Z,3.92
2023-03-29T20:33:13.864Z,6.55
2023-03-29T20:35:42.415Z,4.03
2023-03-29T20:38:11.573Z,4.40
2023-03-29T20:40:40.797Z,3.90
2023-03-29T20:43:13.280Z,4.82
2023-03-29T20:45:52.104Z,5.65
2023-03-29T20:48:23.080Z,4.65
2023-03-29T20:50:52.287Z,4.05
2023-03-29T20:53:21.349Z,6.25
2023-03-29T20:55:49.625Z,5.07
2023-03-29T20:58:19.177Z,7.25
2023-03-29T21:00:48.326Z,7.25
2023-03-29T21:03:16.884Z,9.20
2023-03-29T21:05:45.166Z,6.88
2023-03-29T21:08:17.491Z,5.13
2023-03-29T21:10:47.752Z,4.68
2023-03-29T21:13:15.946Z,4.80
2023-03-29T21:15:47.530Z,5.40
2023-03-29T21:18:16.336Z,6.25
2023-03-29T21:20:45.520Z,5.35
2023-03-29T21:23:14.787Z,5.18
2023-03-29T21:25:43.890Z,4.63
2023-03-29T21:28:13.247Z,7.47
2023-03-29T21:30:41.703Z,5.22
2023-03-29T21:33:11.350Z,4.18
2023-03-29T21:35:39.615Z,5.30
2023-03-29T21:38:07.917Z,7.40
2023-03-29T21:40:38.964Z,5.03
2023-03-29T21:43:07.393Z,4.65
2023-03-29T21:45:35.746Z,6.22
2023-03-29T21:48:03.958Z,4.90
2023-03-29T21:50:34.429Z,5.00
2023-03-29T21:53:05.735Z,5.82
2023-03-29T21:55:36.115Z,6.50
2023-03-29T21:58:04.722Z,7.28
2023-03-29T22:00:33.255Z,5.25
2023-03-29T22:03:02.606Z,4.60
2023-03-29T22:05:31.160Z,6.03
2023-03-29T22:08:01.985Z,6.05
2023-03-29T22:10:32.928Z,8.50
2023-03-29T22:13:01.702Z,6.38
2023-03-29T22:15:29.977Z,6.60
2023-03-29T22:17:59.794Z,7.47
2023-03-29T22:20:28.283Z,6.85
2023-03-29T22:22:56.667Z,5.63
2023-03-29T22:25:26.287Z,5.63
2023-03-29T22:27:54.467Z,4.65
2023-03-29T22:30:22.776Z,4.95
2023-03-29T22:32:51.156Z,5.78
2023-03-29T22:35:19.488Z,4.57
2023-03-29T22:37:47.704Z,6.20
2023-03-29T22:40:16.404Z,5.72
2023-03-29T22:42:46.037Z,5.63
2023-03-29T22:45:14.339Z,4.35
2023-03-29T22:47:42.580Z,5.25
2023-03-29T22:50:11.987Z,5.35
2023-03-29T22:52:40.369Z,5.95
2023-03-29T22:55:09.165Z,6.07
2023-03-29T22:57:37.340Z,6.30
2023-03-29T23:00:08.886Z,5.43
2023-03-29T23:02:37.804Z,4.43
2023-03-29T23:05:06.868Z,3.75
2023-03-29T23:07:36.322Z,5.50
2023-03-29T23:10:06.431Z,4.57
2023-03-29T23:12:36.188Z,4.20
2023-03-29T23:15:08.018Z,5.88
2023-03-29T23:17:37.108Z,4.13
2023-03-29T23:20:06.989Z,5.40
2023-03-29T23:22:36.349Z,5.95
2023-03-29T23:25:04.740Z,6.30
2023-03-29T23:27:33.124Z,6.82
2023-03-29T23:30:01.627Z,7.22
2023-03-29T23:32:31.266Z,7.13
2023-03-29T23:35:00.252Z,6.63
2023-03-29T23:37:28.441Z,7.10
2023-03-29T23:39:56.657Z,7.35
2023-03-29T23:42:24.881Z,5.55
2023-03-29T23:44:53.080Z,5.30
2023-03-29T23:47:21.423Z,4.75
2023-03-29T23:49:53.216Z,5.78
2023-03-29T23:52:21.533Z,5.45
2023-03-29T23:54:51.213Z,5.95
2023-03-29T23:57:19.550Z,5.07
2023-03-29T23:59:52.476Z,4.78
